Time;durP1;ratioP1;P1;durP2;ratioP2;P2;SDS_P1;SDS_P2;PMS_P1;PMS_P2;Temp;Humidity;BMP_temperature;BMP_pressure;BME280_temperature;BME280_humidity;BME280_pressure;Samples;Min_cycle;Max_cycle;Signal;HPM_P1;HPM_P2
2021/03/04 00:02:09;;;;;;;245.13;104.03;;;-1.60;99.90;;;;;;5024031;28;20228;-83
2021/03/04 00:04:36;;;;;;;240.50;102.37;;;-1.50;99.90;;;;;;5008685;28;20197;-80
2021/03/04 00:07:04;;;;;;;222.93;97.93;;;-1.60;99.90;;;;;;5015510;28;20202;-81
2021/03/04 00:09:33;;;;;;;225.43;99.23;;;-1.50;99.90;;;;;;5009398;28;20210;-82
2021/03/04 00:12:00;;;;;;;229.23;99.60;;;-1.30;99.90;;;;;;5010542;28;20262;-81
2021/03/04 00:14:29;;;;;;;230.20;99.40;;;-1.30;99.90;;;;;;5020060;28;20204;-82
2021/03/04 00:16:56;;;;;;;247.97;101.20;;;-1.30;99.90;;;;;;5022477;28;20377;-81
2021/03/04 00:19:24;;;;;;;226.33;100.47;;;-1.30;99.90;;;;;;5017707;28;20580;-81
2021/03/04 00:21:52;;;;;;;234.90;101.07;;;-1.30;99.90;;;;;;5019409;28;20385;-83
2021/03/04 00:24:19;;;;;;;240.17;102.83;;;-1.40;99.90;;;;;;5020304;28;20446;-80
2021/03/04 00:26:48;;;;;;;233.50;101.00;;;-1.30;99.90;;;;;;5029593;28;20196;-80
2021/03/04 00:29:15;;;;;;;232.10;99.93;;;-1.30;99.90;;;;;;5015949;28;20195;-81
2021/03/04 00:31:43;;;;;;;234.53;99.83;;;-1.30;99.90;;;;;;5021016;28;20211;-81
2021/03/04 00:34:11;;;;;;;231.20;101.33;;;-1.20;99.90;;;;;;5012409;28;20302;-81
2021/03/04 00:36:39;;;;;;;226.47;96.23;;;-1.10;99.90;;;;;;5015828;28;20191;-83
2021/03/04 00:39:08;;;;;;;237.87;101.83;;;-0.90;99.90;;;;;;5022110;28;20475;-80
2021/03/04 00:41:35;;;;;;;233.07;101.00;;;-0.80;99.90;;;;;;5010011;28;20227;-81
2021/03/04 00:44:05;;;;;;;232.60;99.43;;;-0.80;99.90;;;;;;5018922;28;20205;-82
2021/03/04 00:46:33;;;;;;;249.73;103.33;;;-0.90;99.90;;;;;;5012058;28;20729;-82
2021/03/04 00:49:01;;;;;;;236.97;101.67;;;-0.90;99.90;;;;;;5002274;28;20209;-79
2021/03/04 00:51:28;;;;;;;231.07;101.93;;;-0.80;99.90;;;;;;5034670;28;20204;-82
2021/03/04 00:53:56;;;;;;;247.03;103.97;;;-0.70;99.90;;;;;;5014549;28;20200;-82
2021/03/04 00:56:23;;;;;;;233.60;101.80;;;-0.60;99.90;;;;;;5016774;28;20227;-84
2021/03/04 00:58:54;;;;;;;219.67;96.20;;;-0.50;99.90;;;;;;5006801;28;20905;-82
2021/03/04 01:01:22;;;;;;;232.13;99.37;;;-0.50;99.90;;;;;;5017385;28;20303;-83
2021/03/04 01:03:50;;;;;;;229.50;97.73;;;-0.40;99.90;;;;;;5013385;28;20361;-83
2021/03/04 01:06:18;;;;;;;215.67;94.67;;;-0.30;99.90;;;;;;5014287;28;20225;-80
2021/03/04 01:08:47;;;;;;;230.77;97.17;;;-0.10;99.90;;;;;;5011236;28;20210;-81
2021/03/04 01:11:16;;;;;;;216.07;90.87;;;0.20;99.90;;;;;;5015637;28;20228;-82
2021/03/04 01:13:43;;;;;;;261.13;107.53;;;0.80;99.90;;;;;;5016633;28;20203;-81
2021/03/04 01:16:11;;;;;;;254.17;106.20;;;1.10;99.90;;;;;;5014794;28;20478;-80
2021/03/04 01:18:40;;;;;;;271.67;107.87;;;1.20;99.90;;;;;;5012908;28;20676;-82
2021/03/04 01:21:07;;;;;;;241.13;102.70;;;1.20;99.90;;;;;;5021777;28;20203;-80
2021/03/04 01:23:35;;;;;;;254.00;106.63;;;1.40;99.90;;;;;;5008395;28;21106;-82
2021/03/04 01:26:02;;;;;;;249.63;105.10;;;1.50;99.90;;;;;;5023971;28;20234;-81
2021/03/04 01:28:30;;;;;;;237.83;100.33;;;1.50;99.90;;;;;;5017121;28;20199;-82
2021/03/04 01:30:58;;;;;;;220.87;97.63;;;1.60;99.90;;;;;;5011433;28;20313;-83
2021/03/04 01:33:26;;;;;;;226.63;99.97;;;1.60;99.90;;;;;;5014111;28;20217;-82
2021/03/04 01:35:55;;;;;;;228.30;98.50;;;1.70;99.90;;;;;;5020329;28;20214;-81
2021/03/04 01:38:22;;;;;;;229.70;98.33;;;1.80;99.90;;;;;;5008860;28;20444;-81
2021/03/04 01:40:50;;;;;;;237.87;96.90;;;1.80;99.90;;;;;;5019300;28;20672;-81
2021/03/04 01:43:18;;;;;;;232.90;97.77;;;1.90;99.90;;;;;;5014529;28;20248;-82
2021/03/04 01:45:45;;;;;;;221.40;91.60;;;2.10;99.90;;;;;;5016574;28;20195;-81
2021/03/04 01:48:14;;;;;;;223.77;96.97;;;2.60;99.90;;;;;;5010749;28;20279;-80
2021/03/04 01:50:41;;;;;;;230.17;98.87;;;2.90;99.90;;;;;;5025070;28;20184;-84
2021/03/04 01:53:13;;;;;;;225.23;97.13;;;2.90;99.90;;;;;;5046250;28;20187;-80
2021/03/04 01:55:41;;;;;;;211.73;95.80;;;3.00;99.90;;;;;;5041344;28;20184;-81
2021/03/04 01:58:08;;;;;;;220.07;96.93;;;3.10;99.90;;;;;;5044674;28;20191;-81
2021/03/04 02:00:36;;;;;;;214.00;94.70;;;3.20;99.90;;;;;;5015484;28;20601;-82
2021/03/04 02:03:03;;;;;;;215.43;97.63;;;3.20;99.90;;;;;;5023417;28;20251;-82
2021/03/04 02:05:32;;;;;;;206.23;92.87;;;3.30;99.90;;;;;;5021972;28;20239;-81
2021/03/04 02:08:08;;;;;;;197.27;91.10;;;3.50;99.90;;;;;;5004985;28;20511;-82
2021/03/04 02:10:41;;;;;;;196.03;90.43;;;3.80;99.90;;;;;;5011969;28;20198;-81
2021/03/04 02:13:22;;;;;;;175.27;87.83;;;4.00;99.90;;;;;;5010944;28;20822;-80
2021/03/04 02:15:53;;;;;;;169.77;84.07;;;4.00;99.90;;;;;;5013550;28;20661;-79
2021/03/04 02:18:25;;;;;;;163.23;80.40;;;4.00;99.90;;;;;;5004774;28;20699;-82
2021/03/04 02:21:18;;;;;;;152.67;77.07;;;3.90;99.90;;;;;;5011492;28;20348;-83
2021/03/04 02:24:03;;;;;;;152.17;74.17;;;3.80;99.90;;;;;;5011367;28;20224;-81
2021/03/04 02:26:49;;;;;;;144.57;73.23;;;3.70;99.90;;;;;;5017232;28;20379;-82
2021/03/04 02:29:21;;;;;;;135.30;66.90;;;3.80;99.90;;;;;;5016164;28;20204;-81
2021/03/04 02:31:52;;;;;;;141.07;67.10;;;3.90;99.90;;;;;;5012179;28;20196;-80
2021/03/04 02:34:22;;;;;;;128.13;65.17;;;3.90;99.90;;;;;;5011319;28;20202;-81
2021/03/04 02:36:52;;;;;;;118.07;61.73;;;3.90;99.90;;;;;;5008200;28;20337;-82
2021/03/04 02:39:21;;;;;;;101.83;54.30;;;3.90;99.90;;;;;;5008592;28;20792;-81
2021/03/04 02:41:51;;;;;;;103.93;54.37;;;3.80;99.90;;;;;;5013019;28;20736;-83
2021/03/04 02:44:21;;;;;;;102.17;54.47;;;3.90;99.90;;;;;;5008285;28;20196;-81
2021/03/04 02:46:50;;;;;;;103.00;53.03;;;3.90;99.90;;;;;;5016730;28;20202;-82
2021/03/04 02:49:36;;;;;;;91.93;48.93;;;4.00;99.90;;;;;;5007627;28;20819;-82
2021/03/04 02:52:05;;;;;;;91.27;48.27;;;3.90;99.90;;;;;;5014432;28;20217;-82
2021/03/04 02:54:33;;;;;;;83.20;47.27;;;3.90;99.90;;;;;;5007975;28;20211;-81
2021/03/04 02:57:03;;;;;;;79.43;45.07;;;3.90;99.90;;;;;;5012611;28;20267;-82
2021/03/04 02:59:32;;;;;;;80.10;44.40;;;3.90;99.90;;;;;;5014119;28;20205;-82
2021/03/04 03:02:01;;;;;;;76.17;43.70;;;3.90;99.90;;;;;;5008215;28;20220;-83
2021/03/04 03:04:30;;;;;;;73.00;40.83;;;3.90;99.90;;;;;;4996482;28;20209;-81
2021/03/04 03:07:00;;;;;;;73.80;39.57;;;4.00;99.90;;;;;;5018046;28;20662;-82
2021/03/04 03:09:29;;;;;;;71.40;40.00;;;4.00;99.90;;;;;;5028110;28;20453;-83
2021/03/04 03:11:56;;;;;;;74.23;39.97;;;4.10;99.90;;;;;;5035707;28;20228;-82
2021/03/04 03:14:26;;;;;;;65.00;39.27;;;4.00;99.90;;;;;;5021420;28;20193;-82
2021/03/04 03:16:53;;;;;;;64.57;38.33;;;4.10;99.90;;;;;;5026144;28;20754;-79
2021/03/04 03:19:21;;;;;;;61.30;36.83;;;4.10;99.90;;;;;;5018784;28;20307;-82
2021/03/04 03:21:49;;;;;;;65.37;37.57;;;4.10;99.90;;;;;;5026984;28;20205;-81
2021/03/04 03:24:16;;;;;;;63.73;35.77;;;4.00;99.90;;;;;;5033286;28;20562;-83
2021/03/04 03:26:47;;;;;;;62.27;36.40;;;3.80;99.90;;;;;;5038862;28;20192;-82
2021/03/04 03:29:14;;;;;;;64.73;36.90;;;3.90;99.90;;;;;;5024702;28;20243;-82
2021/03/04 03:31:47;;;;;;;61.00;36.00;;;3.90;99.90;;;;;;5027382;28;20620;-84
2021/03/04 03:34:16;;;;;;;65.70;36.03;;;4.00;99.90;;;;;;5009702;28;20600;-83
2021/03/04 03:36:44;;;;;;;60.30;36.30;;;4.00;99.90;;;;;;5016523;28;20209;-80
2021/03/04 03:39:11;;;;;;;63.23;35.50;;;4.10;99.90;;;;;;5006657;28;20298;-81
2021/03/04 03:41:42;;;;;;;63.93;34.80;;;4.30;99.90;;;;;;5011978;28;20196;-82
2021/03/04 03:44:12;;;;;;;58.73;34.07;;;4.40;99.90;;;;;;5014201;28;20202;-81
2021/03/04 03:46:42;;;;;;;57.27;34.03;;;4.40;99.10;;;;;;5025264;28;20725;-82
2021/03/04 03:49:11;;;;;;;61.47;34.13;;;4.40;98.50;;;;;;5018182;28;20266;-80
2021/03/04 03:51:39;;;;;;;58.63;35.57;;;4.50;99.40;;;;;;5019105;28;20210;-82
2021/03/04 03:54:08;;;;;;;57.60;34.57;;;4.80;98.80;;;;;;5016541;28;20283;-81
2021/03/04 03:56:39;;;;;;;57.17;33.80;;;4.80;98.00;;;;;;5020718;28;20279;-81
2021/03/04 03:59:08;;;;;;;57.03;34.80;;;4.90;95.80;;;;;;5017799;28;20197;-82
2021/03/04 04:01:37;;;;;;;57.57;34.30;;;4.80;95.50;;;;;;5023343;28;20201;-82
2021/03/04 04:04:06;;;;;;;58.43;35.03;;;4.70;95.70;;;;;;5025238;28;20821;-81
2021/03/04 04:06:34;;;;;;;55.37;35.23;;;4.60;96.50;;;;;;5018866;28;20199;-81
2021/03/04 04:09:01;;;;;;;58.50;34.97;;;4.70;97.50;;;;;;5021712;28;20772;-81
2021/03/04 04:11:30;;;;;;;59.50;34.03;;;4.60;97.10;;;;;;5016901;28;20203;-82
2021/03/04 04:13:58;;;;;;;56.17;32.43;;;4.70;97.40;;;;;;5019202;28;20198;-81
2021/03/04 04:16:26;;;;;;;56.00;33.23;;;4.80;96.40;;;;;;5018285;28;20206;-82
2021/03/04 04:18:56;;;;;;;57.53;34.10;;;5.00;96.20;;;;;;5020919;28;20211;-82
2021/03/04 04:21:25;;;;;;;60.00;33.47;;;5.00;95.40;;;;;;5036289;28;20206;-81
2021/03/04 04:23:53;;;;;;;55.73;32.37;;;5.00;95.20;;;;;;5016996;28;20640;-83
2021/03/04 04:26:20;;;;;;;53.50;32.43;;;4.90;94.90;;;;;;5019839;28;20603;-80
2021/03/04 04:28:48;;;;;;;57.23;32.00;;;5.00;95.60;;;;;;5031187;28;20209;-82
2021/03/04 04:31:16;;;;;;;53.37;31.60;;;5.20;94.90;;;;;;5044332;28;20210;-83
2021/03/04 04:33:44;;;;;;;54.63;31.07;;;5.40;94.20;;;;;;5038899;28;20182;-81
2021/03/04 04:36:11;;;;;;;46.57;29.27;;;5.50;93.70;;;;;;5047352;28;20221;-83
2021/03/04 04:38:40;;;;;;;49.00;28.67;;;5.60;93.00;;;;;;5039615;28;20209;-82
2021/03/04 04:41:07;;;;;;;47.43;30.20;;;5.60;92.70;;;;;;5005569;28;20650;-83
2021/03/04 04:43:35;;;;;;;51.23;30.47;;;5.70;92.60;;;;;;5020009;28;20227;-83
2021/03/04 04:46:03;;;;;;;51.53;30.77;;;5.70;92.40;;;;;;5023697;28;20621;-83
2021/03/04 04:48:31;;;;;;;48.20;29.17;;;5.70;92.30;;;;;;5023092;28;20206;-82
2021/03/04 04:51:11;;;;;;;49.43;29.10;;;5.70;92.20;;;;;;5021043;28;20504;-81
2021/03/04 04:53:40;;;;;;;55.80;31.37;;;5.80;92.10;;;;;;5015924;28;20520;-81
2021/03/04 04:56:08;;;;;;;47.87;29.60;;;5.80;92.10;;;;;;5020144;28;20294;-81
2021/03/04 04:58:39;;;;;;;48.27;28.47;;;5.90;91.90;;;;;;5013640;28;20203;-81
2021/03/04 05:01:07;;;;;;;49.47;29.57;;;5.70;92.20;;;;;;5016353;28;20199;-82
2021/03/04 05:03:35;;;;;;;51.90;30.23;;;5.70;92.50;;;;;;5011578;28;20230;-82
2021/03/04 05:06:03;;;;;;;47.47;29.80;;;5.70;92.30;;;;;;5019897;28;20416;-82
2021/03/04 05:08:30;;;;;;;47.90;31.50;;;5.60;92.10;;;;;;5022156;28;20195;-82
2021/03/04 05:10:58;;;;;;;52.73;31.00;;;5.50;92.50;;;;;;5022656;28;20612;-81
2021/03/04 05:13:26;;;;;;;53.20;31.57;;;5.50;92.80;;;;;;5014845;28;20257;-82
2021/03/04 05:15:53;;;;;;;49.40;30.70;;;5.50;93.00;;;;;;5020079;28;20215;-82
2021/03/04 05:18:21;;;;;;;45.93;28.60;;;5.60;92.80;;;;;;5015868;28;20260;-82
2021/03/04 05:20:51;;;;;;;44.70;28.63;;;5.70;92.30;;;;;;5028945;28;20253;-82
2021/03/04 05:23:18;;;;;;;45.93;28.60;;;5.80;92.20;;;;;;5013625;28;20327;-82
2021/03/04 05:25:46;;;;;;;48.43;27.47;;;5.90;91.80;;;;;;5012015;28;20723;-81
2021/03/04 05:28:15;;;;;;;47.63;27.53;;;6.00;91.70;;;;;;5013537;28;20199;-82
2021/03/04 05:30:43;;;;;;;46.83;29.00;;;6.10;91.70;;;;;;5024286;28;20199;-82
2021/03/04 05:33:11;;;;;;;54.20;29.57;;;6.10;91.60;;;;;;5028469;28;20218;-82
2021/03/04 05:35:38;;;;;;;49.53;29.00;;;6.10;91.60;;;;;;5011218;28;20272;-82
2021/03/04 05:38:06;;;;;;;47.43;27.23;;;6.00;91.70;;;;;;5018384;28;20661;-83
2021/03/04 05:40:34;;;;;;;47.03;28.77;;;6.10;91.60;;;;;;5013108;28;20204;-79
2021/03/04 05:43:02;;;;;;;42.80;28.83;;;6.10;91.70;;;;;;5018521;28;20250;-81
2021/03/04 05:45:31;;;;;;;46.40;28.40;;;6.10;91.50;;;;;;5016921;28;20222;-80
2021/03/04 05:48:02;;;;;;;46.87;27.50;;;6.10;91.50;;;;;;5018829;28;20199;-82
2021/03/04 05:50:32;;;;;;;48.37;28.17;;;6.00;91.60;;;;;;5025629;28;20191;-82
2021/03/04 05:53:05;;;;;;;46.53;28.00;;;6.00;91.80;;;;;;5011851;28;20211;-82
2021/03/04 05:55:33;;;;;;;50.70;29.20;;;5.90;91.70;;;;;;5010673;28;20192;-82
2021/03/04 05:58:05;;;;;;;52.77;30.33;;;5.90;91.90;;;;;;5008886;28;20258;-82
2021/03/04 06:00:36;;;;;;;45.63;26.90;;;5.90;92.10;;;;;;5014819;28;20199;-81
2021/03/04 06:03:05;;;;;;;47.33;29.00;;;5.90;92.10;;;;;;5011135;28;20555;-81
2021/03/04 06:05:34;;;;;;;49.60;28.43;;;5.90;92.10;;;;;;5007290;28;20279;-83
2021/03/04 06:08:06;;;;;;;44.93;27.07;;;5.90;92.00;;;;;;5009894;28;20318;-83
2021/03/04 06:10:35;;;;;;;46.93;27.70;;;5.80;92.20;;;;;;5004852;28;20302;-82
2021/03/04 06:13:04;;;;;;;44.67;28.30;;;5.90;92.30;;;;;;5025169;28;20199;-81
2021/03/04 06:15:37;;;;;;;47.13;27.43;;;5.90;92.30;;;;;;5006556;28;20202;-82
2021/03/04 06:18:07;;;;;;;51.20;28.93;;;5.90;92.20;;;;;;5019583;28;20209;-81
2021/03/04 06:20:43;;;;;;;45.73;27.10;;;5.90;92.40;;;;;;5029914;28;20199;-82
2021/03/04 06:23:11;;;;;;;45.53;28.07;;;5.90;92.30;;;;;;5027018;28;20544;-83
2021/03/04 06:25:39;;;;;;;47.77;27.93;;;5.90;92.40;;;;;;5034599;28;20183;-83
2021/03/04 06:28:07;;;;;;;48.77;28.13;;;5.90;92.40;;;;;;5015662;28;20203;-80
2021/03/04 06:30:37;;;;;;;44.93;27.50;;;6.00;92.40;;;;;;5011708;28;20782;-83
2021/03/04 06:33:08;;;;;;;46.07;28.00;;;6.00;92.20;;;;;;5010290;28;20340;-84
2021/03/04 06:35:37;;;;;;;49.07;29.47;;;6.00;92.30;;;;;;5004574;28;20203;-83
2021/03/04 06:38:15;;;;;;;44.07;28.67;;;6.00;92.40;;;;;;5004147;28;20466;-83
2021/03/04 06:40:44;;;;;;;50.00;29.60;;;6.00;92.40;;;;;;5020440;28;20199;-82
2021/03/04 06:43:17;;;;;;;47.87;29.87;;;5.90;92.80;;;;;;5013735;28;20557;-84
2021/03/04 06:45:47;;;;;;;47.43;30.03;;;6.00;93.10;;;;;;5009226;28;20214;-82
2021/03/04 06:48:16;;;;;;;49.03;30.67;;;6.20;92.90;;;;;;5016843;28;20302;-82
2021/03/04 06:50:48;;;;;;;45.97;28.97;;;6.30;92.40;;;;;;5010683;28;20666;-82
2021/03/04 06:53:17;;;;;;;45.27;28.47;;;6.40;92.10;;;;;;5005368;28;20215;-83
2021/03/04 06:55:53;;;;;;;46.23;28.40;;;6.40;92.10;;;;;;5012680;28;20206;-83
2021/03/04 06:58:24;;;;;;;49.23;28.23;;;6.50;92.10;;;;;;5021132;28;20199;-82
2021/03/04 07:01:07;;;;;;;48.67;28.63;;;6.50;92.10;;;;;;5015447;28;20200;-83
2021/03/04 07:03:36;;;;;;;48.90;29.17;;;6.50;92.10;;;;;;5016112;28;20878;-83
2021/03/04 07:06:05;;;;;;;46.43;28.17;;;6.50;92.20;;;;;;5009389;28;20490;-83
2021/03/04 07:08:35;;;;;;;40.93;26.83;;;6.60;92.20;;;;;;5022006;28;20196;-82
2021/03/04 07:11:05;;;;;;;45.17;26.97;;;6.70;92.20;;;;;;5010895;28;20194;-83
2021/03/04 07:13:35;;;;;;;48.00;28.00;;;6.70;91.90;;;;;;5033296;28;20214;-83
2021/03/04 07:16:08;;;;;;;45.93;27.27;;;6.60;91.90;;;;;;5031145;28;20398;-82
2021/03/04 07:18:40;;;;;;;50.70;28.90;;;6.60;92.10;;;;;;5016092;28;20647;-81
2021/03/04 07:21:10;;;;;;;44.87;27.90;;;6.60;92.30;;;;;;5004936;28;20197;-80
2021/03/04 07:23:39;;;;;;;49.03;30.87;;;6.50;92.40;;;;;;5005518;28;20580;-83
2021/03/04 07:26:07;;;;;;;49.50;28.73;;;6.50;92.80;;;;;;5001944;28;20857;-81
2021/03/04 07:28:36;;;;;;;51.87;28.87;;;6.50;92.70;;;;;;4991762;28;20411;-83
2021/03/04 07:31:06;;;;;;;48.77;30.20;;;6.60;92.80;;;;;;4969186;28;20580;-80
2021/03/04 07:33:36;;;;;;;51.00;31.47;;;6.70;92.60;;;;;;4970227;28;20211;-81
2021/03/04 07:36:06;;;;;;;46.17;29.83;;;6.70;92.40;;;;;;4980012;28;20210;-83
2021/03/04 07:38:35;;;;;;;51.87;30.20;;;6.70;92.10;;;;;;4996669;28;20705;-82
2021/03/04 07:41:08;;;;;;;47.30;29.83;;;6.60;92.40;;;;;;4996532;28;20259;-80
2021/03/04 07:43:49;;;;;;;58.43;32.87;;;6.50;92.80;;;;;;4989969;28;20235;-82
2021/03/04 07:46:32;;;;;;;49.50;30.53;;;6.60;93.10;;;;;;4988211;28;21046;-82
2021/03/04 07:49:01;;;;;;;49.80;30.13;;;6.70;93.20;;;;;;4990083;28;20201;-79
2021/03/04 07:51:40;;;;;;;56.27;30.83;;;6.80;92.70;;;;;;5015444;28;20210;-83
2021/03/04 07:54:08;;;;;;;45.43;29.47;;;7.10;92.20;;;;;;4995608;28;20531;-79
2021/03/04 07:56:35;;;;;;;45.07;29.70;;;7.10;91.80;;;;;;4993275;28;20199;-81
2021/03/04 07:59:11;;;;;;;47.10;28.37;;;7.20;91.50;;;;;;5001780;28;20208;-78
2021/03/04 08:01:42;;;;;;;47.83;28.57;;;6.90;91.40;;;;;;4995804;28;20222;-83
2021/03/04 08:04:20;;;;;;;49.60;28.80;;;6.90;91.70;;;;;;4993855;28;20644;-81
2021/03/04 08:06:49;;;;;;;47.47;28.93;;;6.70;92.20;;;;;;4987038;28;20616;-79
2021/03/04 08:09:30;;;;;;;47.63;29.87;;;6.70;92.70;;;;;;4991844;28;21065;-80
2021/03/04 08:12:06;;;;;;;49.37;30.47;;;6.60;92.50;;;;;;4984613;28;20246;-81
2021/03/04 08:14:34;;;;;;;51.87;31.20;;;6.60;92.80;;;;;;4993609;28;20312;-81
2021/03/04 08:17:04;;;;;;;50.20;30.00;;;6.60;92.80;;;;;;4988374;28;20201;-80
2021/03/04 08:19:33;;;;;;;53.37;31.33;;;6.60;92.90;;;;;;4997126;28;20206;-82
2021/03/04 08:22:07;;;;;;;56.20;32.03;;;6.70;92.80;;;;;;4993052;28;20887;-83
2021/03/04 08:24:36;;;;;;;50.73;31.27;;;6.90;92.30;;;;;;4997546;28;20476;-81
2021/03/04 08:27:06;;;;;;;52.77;32.27;;;7.00;92.10;;;;;;4979486;28;20218;-85
2021/03/04 08:29:34;;;;;;;51.60;34.47;;;7.10;91.80;;;;;;4981409;28;20205;-81
2021/03/04 08:32:04;;;;;;;53.53;33.60;;;7.00;91.40;;;;;;4987754;28;20214;-83
2021/03/04 08:34:37;;;;;;;54.57;34.53;;;7.10;91.00;;;;;;4995458;28;20462;-80
2021/03/04 08:37:06;;;;;;;53.30;34.50;;;7.00;91.20;;;;;;4989940;28;20482;-81
2021/03/04 08:39:35;;;;;;;54.47;33.93;;;6.90;90.90;;;;;;4989766;28;20957;-79
2021/03/04 08:42:05;;;;;;;57.40;36.27;;;6.90;90.70;;;;;;4990565;28;20236;-83
2021/03/04 08:44:32;;;;;;;61.63;38.57;;;6.80;91.10;;;;;;5002943;28;20220;-80
2021/03/04 08:47:00;;;;;;;57.50;37.43;;;6.70;90.90;;;;;;5011358;28;20234;-80
2021/03/04 08:49:29;;;;;;;61.77;39.13;;;6.70;91.00;;;;;;5010948;28;20208;-85
2021/03/04 08:51:57;;;;;;;64.43;38.33;;;6.80;90.60;;;;;;5016279;28;20216;-81
2021/03/04 08:54:28;;;;;;;66.97;41.37;;;6.80;90.50;;;;;;5007763;28;20219;-81
2021/03/04 08:56:58;;;;;;;58.57;36.93;;;6.80;90.30;;;;;;4998418;28;21129;-83
2021/03/04 08:59:26;;;;;;;69.17;42.40;;;6.70;90.00;;;;;;5002101;28;20198;-81
2021/03/04 09:01:54;;;;;;;70.47;41.53;;;6.60;90.20;;;;;;5012772;28;20422;-79
2021/03/04 09:04:24;;;;;;;65.40;41.27;;;6.60;90.00;;;;;;4998520;28;20296;-81
2021/03/04 09:06:53;;;;;;;64.00;37.57;;;6.70;90.00;;;;;;5004940;28;20204;-81
2021/03/04 09:09:25;;;;;;;59.33;38.27;;;6.80;89.60;;;;;;5003999;28;20212;-82
2021/03/04 09:11:54;;;;;;;62.10;40.13;;;6.70;89.50;;;;;;5004265;28;20896;-82
2021/03/04 09:14:26;;;;;;;64.57;39.50;;;6.80;90.00;;;;;;5002749;28;20579;-79
2021/03/04 09:16:55;;;;;;;61.93;40.63;;;6.90;89.90;;;;;;4997155;28;20429;-81
2021/03/04 09:19:27;;;;;;;58.00;37.57;;;6.70;89.70;;;;;;5002394;28;20322;-78
2021/03/04 09:21:57;;;;;;;47.83;28.13;;;6.60;90.00;;;;;;5012034;28;20206;-81
2021/03/04 09:24:34;;;;;;;56.50;34.40;;;6.40;89.90;;;;;;5006027;28;20496;-81
2021/03/04 09:27:03;;;;;;;56.97;35.27;;;6.30;90.20;;;;;;5003722;28;20592;-81
2021/03/04 09:29:34;;;;;;;50.80;32.90;;;6.20;90.10;;;;;;5006683;28;20452;-83
2021/03/04 09:32:01;;;;;;;53.43;33.57;;;6.10;90.10;;;;;;5002131;28;20230;-82
2021/03/04 09:34:33;;;;;;;61.63;36.10;;;6.00;90.40;;;;;;5003724;28;20184;-80
2021/03/04 09:37:09;;;;;;;57.33;36.73;;;6.00;90.50;;;;;;4994020;28;20402;-81
2021/03/04 09:39:40;;;;;;;59.87;36.33;;;5.90;90.70;;;;;;4997979;28;20202;-82
2021/03/04 09:42:07;;;;;;;36.20;21.63;;;5.80;90.90;;;;;;4999745;28;20801;-81
2021/03/04 09:44:47;;;;;;;56.43;34.17;;;5.70;90.80;;;;;;5005136;28;20421;-83
2021/03/04 09:47:19;;;;;;;50.47;32.73;;;5.80;90.90;;;;;;5001739;28;20191;-80
2021/03/04 09:49:47;;;;;;;54.00;31.33;;;5.60;90.10;;;;;;5006323;28;20503;-82
2021/03/04 09:52:20;;;;;;;59.43;33.87;;;5.50;90.50;;;;;;5012047;28;20219;-80
2021/03/04 09:55:08;;;;;;;56.23;31.30;;;5.60;90.30;;;;;;5005407;28;20200;-81
2021/03/04 09:57:40;;;;;;;57.80;32.23;;;5.50;89.40;;;;;;5003807;28;20195;-82
2021/03/04 10:00:19;;;;;;;47.77;31.70;;;5.30;89.50;;;;;;5002136;28;20200;-80
2021/03/04 10:02:48;;;;;;;46.50;27.77;;;5.50;88.80;;;;;;4995564;28;20195;-81
2021/03/04 10:05:18;;;;;;;47.10;31.03;;;5.60;88.70;;;;;;4996419;28;20510;-80
2021/03/04 10:07:47;;;;;;;46.43;28.03;;;5.40;88.60;;;;;;4999532;28;20195;-80
2021/03/04 10:10:17;;;;;;;43.17;27.53;;;5.20;89.10;;;;;;5011128;28;20194;-81
2021/03/04 10:12:50;;;;;;;46.60;29.07;;;5.10;89.90;;;;;;5024039;28;20218;-79
2021/03/04 10:15:29;;;;;;;45.73;28.13;;;5.10;90.20;;;;;;5011488;28;20772;-82
2021/03/04 10:17:59;;;;;;;44.40;28.17;;;5.20;89.80;;;;;;4994050;28;20202;-81
2021/03/04 10:20:27;;;;;;;47.47;28.23;;;5.10;89.70;;;;;;4991001;28;20198;-79
2021/03/04 10:22:56;;;;;;;44.33;27.50;;;5.10;89.60;;;;;;4987969;28;20517;-80
2021/03/04 10:25:24;;;;;;;49.37;28.53;;;5.10;90.00;;;;;;4995765;28;20924;-82
2021/03/04 10:27:52;;;;;;;45.13;28.10;;;5.10;90.00;;;;;;4992910;28;20249;-82
2021/03/04 10:30:22;;;;;;;46.77;28.80;;;5.20;90.10;;;;;;4994331;28;20508;-81
2021/03/04 10:32:50;;;;;;;44.83;27.47;;;5.20;90.00;;;;;;4998386;28;20199;-81
2021/03/04 10:35:18;;;;;;;44.20;27.47;;;5.20;90.00;;;;;;5003325;28;20212;-82
2021/03/04 10:37:46;;;;;;;42.37;27.60;;;5.10;90.10;;;;;;5008956;28;20762;-83
2021/03/04 10:40:16;;;;;;;45.13;26.83;;;5.10;90.20;;;;;;5007232;28;20722;-83
2021/03/04 10:42:44;;;;;;;47.17;28.33;;;5.10;90.00;;;;;;5011321;28;20194;-81
2021/03/04 10:45:14;;;;;;;47.57;29.27;;;5.00;90.10;;;;;;4997339;28;20427;-83
2021/03/04 10:47:43;;;;;;;46.57;28.03;;;5.00;90.20;;;;;;4998439;28;20206;-82
2021/03/04 10:50:13;;;;;;;46.13;27.33;;;5.00;90.20;;;;;;4997623;28;20758;-83
2021/03/04 10:52:40;;;;;;;42.60;27.03;;;4.90;90.40;;;;;;5005608;28;20202;-84
2021/03/04 10:55:09;;;;;;;44.37;26.17;;;4.90;90.30;;;;;;4997841;28;20399;-82
2021/03/04 10:57:39;;;;;;;45.53;26.63;;;4.90;90.60;;;;;;4999553;28;20629;-82
2021/03/04 11:00:08;;;;;;;42.93;27.10;;;4.90;90.50;;;;;;4997115;28;20584;-81
2021/03/04 11:02:36;;;;;;;42.97;26.50;;;5.00;90.60;;;;;;5001012;28;20239;-83
2021/03/04 11:05:07;;;;;;;44.47;27.33;;;5.20;90.40;;;;;;5001411;28;20249;-83
2021/03/04 11:07:34;;;;;;;42.33;26.93;;;5.00;90.40;;;;;;5003097;28;20204;-83
2021/03/04 11:10:04;;;;;;;48.13;27.07;;;5.00;90.50;;;;;;4999034;28;20296;-84
2021/03/04 11:12:47;;;;;;;47.73;28.43;;;4.90;90.70;;;;;;5004596;28;20200;-82
2021/03/04 11:15:15;;;;;;;45.60;27.80;;;5.00;90.60;;;;;;5000749;28;20619;-81
2021/03/04 11:17:43;;;;;;;50.47;27.63;;;5.00;90.40;;;;;;4998351;28;20203;-82
2021/03/04 11:20:12;;;;;;;45.43;26.40;;;4.90;90.50;;;;;;5010410;28;20203;-81
2021/03/04 11:22:39;;;;;;;44.00;27.23;;;4.90;90.50;;;;;;4996137;28;20248;-81
2021/03/04 11:25:08;;;;;;;45.40;26.63;;;4.80;90.40;;;;;;4992304;28;20232;-80
2021/03/04 11:27:36;;;;;;;42.23;25.27;;;4.90;90.50;;;;;;4996409;28;20293;-80
2021/03/04 11:30:06;;;;;;;43.30;24.90;;;4.90;90.30;;;;;;4991650;28;20212;-80
2021/03/04 11:32:34;;;;;;;41.33;25.03;;;5.00;90.20;;;;;;5001301;28;20381;-83
2021/03/04 11:35:02;;;;;;;31.67;19.50;;;5.10;90.00;;;;;;4994590;28;20846;-82
2021/03/04 11:37:30;;;;;;;39.10;23.63;;;5.00;89.70;;;;;;5002330;28;20304;-83
2021/03/04 11:39:58;;;;;;;41.70;24.53;;;5.00;89.80;;;;;;4983342;28;20215;-82
2021/03/04 11:42:25;;;;;;;39.80;25.03;;;5.10;89.80;;;;;;5001185;28;20507;-82
2021/03/04 11:44:53;;;;;;;39.63;23.03;;;5.00;89.20;;;;;;5003937;28;20228;-81
2021/03/04 11:47:21;;;;;;;42.80;24.37;;;4.90;89.70;;;;;;5010645;28;20202;-79
2021/03/04 11:49:51;;;;;;;41.43;23.93;;;4.90;89.90;;;;;;4996176;28;20270;-83
2021/03/04 11:52:19;;;;;;;38.07;23.17;;;4.90;89.80;;;;;;5014497;28;20243;-81
2021/03/04 11:54:47;;;;;;;34.93;22.07;;;5.00;89.20;;;;;;5001437;28;20206;-82
2021/03/04 11:57:15;;;;;;;40.70;22.70;;;5.00;89.30;;;;;;4994570;28;20521;-82
2021/03/04 11:59:42;;;;;;;36.70;21.33;;;5.00;89.60;;;;;;4997457;28;20206;-81
2021/03/04 12:02:10;;;;;;;33.77;20.20;;;4.90;89.30;;;;;;4995404;28;20413;-81
2021/03/04 12:04:38;;;;;;;38.60;22.00;;;4.90;90.00;;;;;;4995902;28;20231;-80
2021/03/04 12:07:06;;;;;;;28.07;15.57;;;5.00;89.90;;;;;;4997076;28;20714;-79
2021/03/04 12:09:34;;;;;;;35.40;20.07;;;4.90;89.50;;;;;;4990404;28;21112;-80
2021/03/04 12:12:01;;;;;;;36.57;21.47;;;4.90;89.70;;;;;;5000501;28;20195;-79
2021/03/04 12:14:29;;;;;;;37.93;21.87;;;4.80;90.00;;;;;;5002239;28;20531;-81
2021/03/04 12:16:56;;;;;;;41.90;22.87;;;4.80;90.10;;;;;;5017312;28;20199;-81
2021/03/04 12:19:25;;;;;;;39.13;21.80;;;4.70;90.10;;;;;;5006655;28;20196;-82
2021/03/04 12:21:53;;;;;;;42.10;24.17;;;4.80;90.20;;;;;;4984845;28;20538;-82
2021/03/04 12:24:21;;;;;;;36.30;21.93;;;4.80;90.30;;;;;;5002102;28;20230;-80
2021/03/04 12:26:52;;;;;;;36.33;20.63;;;4.70;90.20;;;;;;5020713;28;20665;-82
2021/03/04 12:29:20;;;;;;;39.70;22.53;;;4.70;90.30;;;;;;5012208;28;20195;-82
2021/03/04 12:31:48;;;;;;;40.00;22.33;;;4.70;90.20;;;;;;5001973;28;20573;-80
2021/03/04 12:34:16;;;;;;;39.03;21.67;;;4.70;90.40;;;;;;4991213;28;20213;-81
2021/03/04 12:36:44;;;;;;;36.43;20.30;;;4.60;90.70;;;;;;5000992;28;20740;-81
2021/03/04 12:39:14;;;;;;;38.50;19.23;;;4.40;90.80;;;;;;4983000;28;20220;-81
2021/03/04 12:41:43;;;;;;;39.00;20.80;;;4.40;91.10;;;;;;4990945;28;20874;-81
2021/03/04 12:44:11;;;;;;;45.07;24.47;;;4.30;91.30;;;;;;5010812;28;20230;-81
2021/03/04 12:46:38;;;;;;;43.70;24.90;;;4.20;91.40;;;;;;4999065;28;20203;-80